x

Los Angeles Pier F, Ca - 9410670 (pfxc1) Weather Station

3:54 - Tue 5th May 2015 All times are PDT. -7 hours from GMT.

  • Wind
    3mph, 5mph gusts
  • Luft Temp 59°f
  • Sea Pressure 1014.8mb
  • Los Angeles Pier F, Ca - 9410670
  • Los Angeles Pier F, Ca - 9410670

More Historic Weather Station data

Upgrade to MSW Pro to gain access to the past 30 days of data for over 8000 Wavebouys and Weather Stations around the globe.

Join Pro

Comparision Forecast

View Surf forecast
   
Di 05/05 3:54 3 5 mph 1014.8mb 59f
3:48 3 5 mph 1014.8mb 59f
3:30 6 7 mph 1014.8mb 58f
3:18 6 7 mph 1014.8mb 58f
3:06 6 7 mph 1014.8mb 58f
2:54 6 7 mph 1014.9mb 58f
2:36 5 6 mph 1014.8mb 59f
2:24  -  2 mph 1014.9mb 59f
1:54 1 2 mph 1015.1mb 59f
1:42  -  mph 1015.1mb 58f
1:24  -  1 mph 1015.2mb 58f
1:18 1 2 mph 1015.1mb 58f
1:12 2 3 mph 1015.2mb 58f
12:54 2 3 mph 1015.3mb 58f
12:42 2 3 mph 1015.3mb 58f
12:30 2 3 mph 1015.4mb 58f
12:24 2 5 mph 1015.4mb 58f
12:18 5 6 mph 1015.5mb 58f
12:12 5 6 mph 1015.5mb 58f
12:06 5 6 mph 1015.4mb 58f
12:00 5 6 mph 1015.4mb 58f
Mo 05/04 11:42 6 7 mph 1015.3mb 58f
11:36 5 7 mph 1015.3mb 58f
11:06 6 7 mph 1015.3mb 58f
10:42 6 7 mph 1015.3mb 58f
10:24 6 8 mph 1015mb 58f
10:12 7 8 mph 1014.9mb 58f
10:06 7 10 mph 1014.8mb 58f
9:54 7 9 mph 1014.8mb 58f
9:48 6 8 mph 1014.7mb 58f
9:36 5 7 mph 1014.5mb 58f
9:30 5 7 mph 1014.5mb 59f
8:42 3 6 mph 1014mb 59f
8:36 6 7 mph 1014mb 59f
7:54 11 14 mph 1013.6mb 59f
7:48 11 15 mph 1013.6mb 59f
7:36 11 16 mph 1013.5mb 59f
7:12 11 15 mph 1013mb 60f
6:54 10 14 mph 1012.8mb 62f
6:48 10 14 mph 1012.8mb 62f
6:24 10 15 mph 1012.6mb 62f
6:18 11 14 mph 1012.5mb 62f
6:06 13 17 mph 1012.5mb 63f
5:54 10 14 mph 1012.6mb 64f
5:42 9 14 mph 1012.6mb 64f
5:36 10 13 mph 1012.6mb 64f
5:12 11 15 mph 1012.8mb 64f
5:00 13 16 mph 1012.7mb 63f
4:48 13 16 mph 1012.8mb 63f
4:36 15 20 mph 1012.8mb 62f
4:30 14 18 mph 1012.8mb 63f
4:24 14 18 mph 1013mb 64f
4:18 14 18 mph 1013mb 64f
4:12 15 20 mph 1013mb 63f
4:00 15 20 mph 1013mb 63f
3:42 13 17 mph 1013.3mb 65f
3:30 13 17 mph 1013.5mb 65f
3:12 13 16 mph 1013.6mb 65f
3:06 11 17 mph 1013.6mb 65f
3:00 14 17 mph 1013.6mb 65f
2:42 13 16 mph 1013.9mb 66f
2:30 11 15 mph 1013.9mb 66f
2:12 13 16 mph 1014.1mb 65f
2:00 13 15 mph 1014.3mb 65f
1:36 13 16 mph 1014.5mb 65f
1:06 13 16 mph 1014.7mb 65f
1:00 13 16 mph 1014.7mb 65f
12:54 14 17 mph 1014.8mb 65f
12:48 13 15 mph 1014.8mb 65f
12:42 11 15 mph 1014.9mb 65f
12:36 11 15 mph 1014.9mb 65f
12:24 13 16 mph 1014.9mb 65f
12:18 11 15 mph 1015mb 65f
12:06 11 14 mph 1014.9mb 64f
11:54 13 14 mph 1014.9mb 64f
11:48 13 14 mph 1014.9mb 63f
11:24 13 14 mph 1015.3mb 63f
11:12 11 13 mph 1015mb 62f
11:00 10 11 mph 1015mb 62f
10:30 8 9 mph 1014.7mb 61f
10:24 9
mph
1014.7mb 61f
10:18 9 10 mph 1014.6mb 61f
10:12 9 11 mph 1014.6mb 61f
10:00 8 9 mph 1014.6mb 61f
9:48 7 9 mph 1014.5mb 59f
9:42 7 8 mph 1014.5mb 59f
9:30 6 7 mph 1014.3mb 60f
9:18 5 6 mph 1014.2mb 61f
9:12 5 6 mph 1014.2mb 61f
9:00 2 3 mph 1014.1mb 60f
8:24 5 6 mph 1014.1mb 60f
8:18 5 7 mph 1014.1mb 60f
8:12 6 8 mph 1014.1mb 60f
7:48 6 8 mph 1013.9mb 59f
7:24 7 9 mph 1013.5mb 59f
7:06 6 8 mph 1013.3mb 59f
6:54 5 7 mph 1013.2mb 59f
6:48 6 7 mph 1013.1mb 59f
6:36 5 7 mph 1013mb 59f
6:24 6 7 mph 1013mb 59f
6:18 6
mph
1012.9mb 59f
6:06 3 5 mph 1012.9mb 58f
5:30 3 5 mph 1012.6mb 58f
4:54 5 6 mph 1012.5mb 58f
4:36 6 7 mph 1012.5mb 59f
4:30 5 6 mph 1012.5mb 59f
4:12 6 7 mph 1012.5mb 59f
3:54 5 7 mph 1012.5mb 59f
3:48 5 6 mph 1012.5mb 59f
3:42 3 6 mph 1012.6mb 59f
3:30 5 6 mph 1012.6mb 59f
3:24 5 6 mph 1012.7mb 59f
3:18 5 7 mph 1012.7mb 59f
3:12 6 7 mph 1012.7mb 59f
3:06 5 6 mph 1012.7mb 59f
2:54 5 7 mph 1012.7mb 59f
2:30 2 3 mph 1012.9mb 58f
2:24 1 2 mph 1012.9mb 58f
2:18 2
mph
1012.8mb 58f
2:12 2 3 mph 1012.9mb 58f
2:06 2 3 mph 1012.9mb 58f
1:48 3
mph
1012.9mb 58f
1:36 3
mph
1013mb 59f
1:30 2 3 mph 1013mb 59f
1:24 3 5 mph 1013.1mb 59f
1:06 3 5 mph 1013mb 59f
1:00 6 8 mph 1013mb 59f
12:54 5 8 mph 1013mb 59f
12:42 6 8 mph 1013mb 59f
12:30 6 8 mph 1012.9mb 58f
12:24 7 8 mph 1012.9mb 59f
12:18 7 9 mph 1012.8mb 59f
12:06 8 10 mph 1012.6mb 59f
12:00 9 11 mph 1012.6mb 59f
So 05/03 11:54 8 13 mph 1012.6mb 59f
11:24  -  3 mph 1012.3mb 59f
11:18 3 5 mph 1012.2mb 59f
11:06 3 5 mph 1012.1mb 59f
10:18 8 10 mph 1011.8mb 60f
10:12 9 11 mph 1011.7mb 60f
10:00 8 10 mph 1011.6mb 60f
9:48 6 8 mph 1011.5mb 61f
9:42 6 9 mph 1011.5mb 61f
9:12 6 9 mph 1011.1mb 61f
9:06 6 10 mph 1011.1mb 61f
9:00 7 10 mph 1011mb 61f
8:54 8 9 mph 1010.9mb 61f
8:48 8 9 mph 1010.9mb 61f
8:42 6 9 mph 1010.8mb 61f
8:36 7 9 mph 1010.7mb 61f
8:30 5 8 mph 1010.7mb 61f
8:24 5 8 mph 1010.5mb 61f
8:18 8 9 mph 1010.4mb 61f
8:12 7 9 mph 1010.3mb 61f
8:00 6 7 mph 1010.2mb 61f
7:54 7 9 mph 1010.1mb 61f
7:42 8 10 mph 1010.1mb 61f
7:30 9 11 mph 1010mb 62f
7:18 9 14 mph 1010mb 62f
7:06 13 15 mph 1009.9mb 62f
7:00 11 14 mph 1009.9mb 63f
6:54 13 16 mph 1009.9mb 63f
6:48 15 18 mph 1009.9mb 63f
6:24 16 18 mph 1009.9mb 64f
6:18 16 18 mph 1009.9mb 64f
5:54 15 17 mph 1010.1mb 64f
5:48 15 16 mph 1010.2mb 64f
5:42 16 20 mph 1010.2mb 64f
5:24 15 17 mph 1010.3mb 66f
5:12 11 18 mph 1010.5mb 66f
5:00 10 14 mph 1010.7mb 65f
4:48 10 14 mph 1010.8mb 65f
4:36 9 14 mph 1010.9mb 66f
4:30 9 14 mph 1011mb 66f
4:24 11 16 mph 1010.8mb 65f
3:54 13 15 mph 1011mb 66f
3:48 13 16 mph 1011.1mb 66f
3:42 14 17 mph 1011.2mb 66f
3:36 13 16 mph 1011.2mb 66f
3:30 14 17 mph 1011.2mb 65f
3:18 14 17 mph 1011.4mb 66f
2:36 13 16 mph 1011.9mb 67f
2:30 13 16 mph 1012mb 67f
2:24 13 17 mph 1012mb 67f
2:12 13 17 mph 1012.1mb 67f
2:00 11 14 mph 1012.2mb 67f
1:36 10 13 mph 1012.5mb 68f
1:30 10 14 mph 1012.5mb 67f
1:24 10 13 mph 1012.6mb 67f
1:18 10 14 mph 1012.7mb 67f
1:06 11 14 mph 1012.8mb 66f
1:00 11 13 mph 1013mb 66f
12:48 11 14 mph 1013.1mb 66f
12:30 11 14 mph 1013.1mb 67f
12:24 10 13 mph 1013.2mb 67f
12:18 10 13 mph 1013.2mb 66f
12:06 10 13 mph 1013.2mb 66f
12:00 10 11 mph 1013.3mb 66f
11:54 11 13 mph 1013.3mb 66f
11:48 10 11 mph 1013.4mb 65f
11:18 9 11 mph 1013.4mb 66f
11:00 9 10 mph 1013.4mb 64f
10:36 8
mph
1013.1mb 61f
10:30 8
mph
1013.1mb 62f
10:18 8
mph
1013mb 62f
10:00 8
mph
1013mb 63f
9:54 8 9 mph 1012.9mb 63f
9:48 9
mph
1013.1mb 63f
9:42 8 9 mph 1013.1mb 62f
9:36 9
mph
1013.1mb 62f
9:30 8 9 mph 1013mb 62f
9:24 9
mph
1012.9mb 62f
9:18 9
mph
1012.9mb 62f
9:12 9 10 mph 1012.8mb 62f
9:06 9 10 mph 1012.8mb 62f
9:00 10 11 mph 1012.7mb 62f
8:54 9 11 mph 1012.6mb 61f
8:48 10 11 mph 1012.6mb 61f
8:24 9 10 mph 1012.5mb 61f
8:18 9 11 mph 1012.4mb 61f
8:12 8 9 mph 1012.5mb 61f
8:06 7 8 mph 1012.5mb 61f
7:54 6 7 mph 1012.3mb 61f
7:30 5 6 mph 1012.1mb 61f
7:24 6 7 mph 1012.1mb 60f
7:06 5
mph
1011.8mb 60f
7:00 5 6 mph 1011.8mb 60f
6:48 5 6 mph 1011.6mb 60f
6:18 6
mph
1011.4mb 61f
6:12 5 6 mph 1011.3mb 62f
5:54 6 8 mph 1011.2mb 62f
5:48 5 7 mph 1011.2mb 62f
5:36 3 5 mph 1011.1mb 62f
5:00 7 9 mph 1011.1mb 62f
4:54 7 10 mph 1011.1mb 62f
4:48 6 9 mph 1011.1mb 62f
4:42 5 8 mph 1011.2mb 62f
4:30 6 9 mph 1011.2mb 62f
4:18 5 7 mph 1011.1mb 62f
3:54 5 7 mph 1011.2mb 62f
3:42 2 5 mph 1011.3mb 62f
3:36 5 7 mph 1011.3mb 62f
3:18 6 7 mph 1011.2mb 62f
3:12 6 7 mph 1011.3mb 62f
3:06 6 7 mph 1011.3mb 62f
2:54 6 7 mph 1011.3mb 62f
2:30 6 8 mph 1011.4mb 62f
2:18 5 6 mph 1011.4mb 62f
1:54 8 10 mph 1011.5mb 61f
1:48 8 10 mph 1011.5mb 61f
1:42 7 9 mph 1011.5mb 60f
1:30 8 9 mph 1011.5mb 60f
1:06 5 7 mph 1011.4mb 59f
1:00 8 10 mph 1011.5mb 59f
12:48 10 13 mph 1011.5mb 60f
12:42 9 11 mph 1011.5mb 60f
12:36 8 11 mph 1011.6mb 60f
12:30 8 11 mph 1011.6mb 61f
Sa 05/02 11:54 6 8 mph 1011.5mb 61f
11:48  -  mph - 61f
11:36  -  mph - 61f
11:30 8 11 mph 1011.5mb 61f
11:12 9 11 mph 1011.5mb 61f
11:06 10 14 mph 1011.4mb 60f
10:48 14 17 mph 1011.2mb 60f
10:42 13 18 mph 1011.2mb 60f
10:36 15 20 mph 1011.1mb 60f
10:30 15 20 mph 1011mb 60f
10:24 15 21 mph 1011mb 60f
10:18 16 21 mph 1010.9mb 60f
10:00 15 21 mph 1010.7mb 60f
9:54 16 22 mph 1010.7mb 60f
9:48 16 23 mph 1010.6mb 60f
9:36 17 23 mph 1010.4mb 60f
9:24 17 20 mph 1010.3mb 60f
9:00 9 11 mph 1010mb 62f
8:48 3 6 mph 1009.8mb 62f
8:42 3 7 mph 1009.6mb 62f
7:54 13 15 mph 1009mb 63f
7:42 11 15 mph 1008.8mb 63f
7:18 11 14 mph 1008.5mb 66f
7:06 6 9 mph 1008.4mb 67f
7:00 7 9 mph 1008.4mb 68f
6:54 8 10 mph 1008.3mb 68f
6:42 8 10 mph 1008.3mb 70f
6:24 13 15 mph 1008.3mb 68f
6:18 14 16 mph 1008.3mb 69f
6:12 14 16 mph 1008.3mb 69f
5:54 11 14 mph 1008.3mb 71f
5:42 13 14 mph 1008.3mb 72f
5:36 13 15 mph 1008.3mb 72f
5:30 11 15 mph 1008.3mb 74f
5:24 11 15 mph 1008.4mb 75f
5:06 10 13 mph 1008.5mb 75f
5:00 10 13 mph 1008.5mb 75f
4:54 9 11 mph 1008.5mb 74f
4:48 8 9 mph 1008.5mb 75f
4:36 9 11 mph 1008.5mb 73f
4:24 7 11 mph 1008.6mb 75f
4:18 6 8 mph 1008.7mb 76f
4:12 5 7 mph 1008.8mb 76f
4:06 6 7 mph 1008.7mb 75f
4:00 8 9 mph 1008.7mb 74f
3:36 5 6 mph 1008.8mb 76f
3:30 5 7 mph 1008.9mb 79f
3:24 6 8 mph 1009.1mb 80f
3:00 5 10 mph 1009.1mb 77f
2:54 6 9 mph 1009.4mb 80f
2:36 7 9 mph 1009.6mb 78f
2:30 6 7 mph 1009.8mb 76f
2:24 3 6 mph 1009.8mb 74f
2:18 7 9 mph 1009.8mb 74f
2:12 7 8 mph 1009.9mb 74f
2:06 6 8 mph 1009.9mb 74f
2:00 6 9 mph 1010mb 74f
1:48 6 9 mph 1010.2mb 74f
1:36 8 10 mph 1010.4mb 74f
1:06 13 14 mph 1010.4mb 71f
1:00 13 14 mph 1010.4mb 72f
12:48 13 15 mph 1010.5mb 71f
12:42 13 14 mph 1010.6mb 72f
12:36 11
mph
1010.7mb 72f
12:30 10 11 mph 1010.8mb 72f
12:18 13 14 mph 1010.8mb 71f
12:12 11 13 mph 1010.9mb 71f
12:06 10 11 mph 1011mb 71f
11:54 11 14 mph 1011mb 70f
11:48 11 14 mph 1011.1mb 70f
11:36 11 13 mph 1011.2mb 70f
11:24 7 8 mph 1011.2mb 72f
11:12 7 8 mph 1011.1mb 70f
10:54 3 6 mph 1011mb 69f
10:48 5 6 mph 1011.2mb 71f
10:42 5 6 mph 1011.2mb 70f
10:00 8 9 mph 1011.2mb 68f
9:48 5 6 mph 1011mb 62f
9:42 5 6 mph 1010.9mb 63f
9:12 6
mph
1010.9mb 65f
9:00 5 6 mph 1010.8mb 64f
8:54 5 6 mph 1010.7mb 64f
8:48 5 6 mph 1010.7mb 65f
8:30 5 6 mph 1010.6mb 64f
8:24 5 6 mph 1010.5mb 64f
8:18 3 5 mph 1010.6mb 65f
8:12 3
mph
1010.6mb 64f
8:00 3 5 mph 1010.5mb 61f
7:54 3 5 mph 1010.4mb 61f
7:48 3
mph
1010.4mb 61f
7:36 5 6 mph 1010.4mb 62f
7:30 5 6 mph 1010.4mb 62f
7:24 5 6 mph 1010.3mb 61f
7:18 6 7 mph 1010.3mb 61f
7:12 5 6 mph 1010.3mb 61f
6:42 1
mph
1010mb 61f
6:36  -  2 mph 1010mb 61f
6:30  -  2 mph 1009.9mb 61f
6:12  -  1 mph 1009.8mb 60f
5:54 1 2 mph 1009.7mb 60f
5:48 2 3 mph 1009.6mb 60f
5:42 2 3 mph 1009.6mb 61f
5:30 3 5 mph 1009.7mb 61f
5:24 3 5 mph 1009.6mb 61f
5:06 3 5 mph 1009.6mb 61f
5:00 3 5 mph 1009.6mb 61f
4:42 1 3 mph 1009.6mb 62f
4:36 1 3 mph 1009.6mb 62f
4:24 3
mph
1009.6mb 62f
4:06 1 3 mph 1009.7mb 62f
3:48 2 5 mph 1009.7mb 62f
3:30 1 2 mph 1009.7mb 61f
3:18 1 2 mph 1009.7mb 61f
3:12  -  1 mph 1009.7mb 61f
3:00  -  1 mph 1009.8mb 62f
2:30 3
mph
1009.9mb 62f
2:24 3 5 mph 1009.9mb 62f
2:18 3 5 mph 1010mb 61f
2:06 2 3 mph 1010.1mb 62f
1:54 2 6 mph 1010.2mb 62f
1:48 3 6 mph 1010.3mb 63f
1:42 5 7 mph 1010.4mb 63f
1:36 6 8 mph 1010.4mb 63f
1:24 5 9 mph 1010.5mb 64f
1:06 6 7 mph 1010.6mb 64f
1:00 1 3 mph 1010.6mb 63f
12:48 5 6 mph 1010.6mb 62f
12:36 6
mph
1010.7mb 62f
12:30 5 6 mph 1010.9mb 62f
12:12 6
mph
1011mb 62f
12:00 5 6 mph 1011.1mb 62f
Fr 05/01 11:42 3 5 mph 1011.2mb 63f
11:30 5 6 mph 1011.3mb 63f
11:24 3 5 mph 1011.3mb 63f
11:00 1 3 mph 1011.4mb 62f
10:54 2 5 mph 1011.5mb 62f
10:42 1 2 mph 1011.5mb 62f
10:36 1 2 mph 1011.5mb 63f
10:18 6 7 mph 1011.4mb 65f
10:06 6 7 mph 1011.3mb 65f
10:00 5 6 mph 1011.3mb 65f
9:54 6 7 mph 1011.3mb 65f
9:42 1 3 mph 1011mb 63f
9:36 2 3 mph 1010.9mb 64f
9:24 3 5 mph 1010.8mb 66f
9:06 2 5 mph 1010.6mb 67f
8:48 2 3 mph 1010.5mb 65f
8:36 3 5 mph 1010.4mb 65f
8:30 3
mph
1010.4mb 65f
8:18 2
mph
1010.3mb 66f
7:54 1 5 mph 1009.9mb 68f
7:42 7 8 mph 1009.9mb 71f
7:36 7 10 mph 1009.8mb 72f
7:30 8 11 mph 1009.8mb 72f
7:00 11 14 mph 1009.6mb 73f
6:54 11 15 mph 1009.5mb 73f
6:24 13 14 mph 1009.6mb 74f
6:18 13 15 mph 1009.6mb 74f
6:12 15 18 mph 1009.6mb 73f
6:06 16 18 mph 1009.5mb 73f
6:00 15 18 mph 1009.6mb 74f
5:48 14 18 mph 1009.7mb 74f
5:24 15 18 mph 1009.7mb 75f
5:18 15 17 mph 1009.7mb 76f
4:54 13 15 mph 1009.7mb 79f
4:48 13 14 mph 1009.7mb 78f
4:36 10 14 mph 1009.8mb 81f
4:18 11 14 mph 1009.8mb 80f
4:12 13 15 mph 1009.8mb 79f
4:06 14 16 mph 1009.9mb 79f
4:00 13 15 mph 1009.9mb 79f
3:54 11 13 mph 1009.9mb 80f
3:48 10 13 mph 1009.9mb 80f
3:42 10 13 mph 1009.9mb 80f
3:36 13 14 mph 1009.9mb 80f
3:30 13 14 mph 1009.8mb 82f
3:24 9 10 mph 1010mb 84f
3:18 9 11 mph 1010.1mb 84f
3:12 8 9 mph 1010.2mb 84f
2:54 8 10 mph 1010.4mb 85f
2:36 5 7 mph 1010.6mb 81f
2:24 5 6 mph 1010.6mb 82f
2:18 6 7 mph 1010.7mb 84f
2:12 7 8 mph 1010.8mb 84f
2:06 7
mph
1010.8mb 83f
2:00 6 8 mph 1010.8mb 81f
1:36 8 9 mph 1011mb 77f
1:30 8 9 mph 1010.9mb 76f
1:24 9 10 mph 1011mb 76f
1:18 9 10 mph 1011.1mb 76f
1:12 9 10 mph 1011mb 75f
1:06 8 9 mph 1011.1mb 76f
12:36 7
mph
1011.4mb 74f
12:30 7 8 mph 1011.5mb 76f
12:18 7 8 mph 1011.6mb 73f
12:12 7 8 mph 1011.6mb 72f
12:06 8
mph
1011.7mb 73f